Airfield :
LOGIN :

Register | Disclaimer

   EN    FR    IT 

 










Legend :    VFR   Marginal VFR   IFR   Intensive IFR   Very Intensive IFR
Visi :
Ceiling :
>= 8 km
>= 3000ft
5 to 8 km
1000 to 3000 ft
1500m to 5 km
500 to 1000 ft
800 to 1500m
200 to 500 ft
< 800m
< 200 ft
Symbols :   Thunderstorms  Fog  Heavy snow  Heavy precipitations  Wind > 20 kt
SIGMETs :     Misc.  Thunderstorms  Icing  Turbulence  Mountain Waves  Volcanic Ashes






- Airport Elevation : 284 ft


EGUW - RAF Wattisham

CURRENT METAR :
  • 211250Z 22010KT 7000 -RA FEW003 BKN005 OVC008 14/14 Q0990 BECMG 8000 BKN007 RMK YLO1 BECMG GRN

EXPIRED METARs :
  • 211220Z 20008KT 9999 -RA FEW004 BKN005 OVC008 14/14 Q0990 BECMG BKN008 RMK YLO1 BECMG GRN
  • 211150Z 19008KT 9999 -RA SCT006 OVC008 14/13 Q0990 BECMG BKN008 RMK YLO1 BECMG GRN
  • 211120Z 17008KT 8000 -RADZ FEW005 BKN006 OVC007 14/13 Q0990 BECMG BKN007 RMK YLO1 BECMG GRN
  • 211050Z 18010KT 5000 -RADZ SCT004 BKN006 OVC015 14/13 Q0991 BECMG 8000 BKN007 RMK YLO2 BECMG GRN
  • 211020Z 15007KT 3500 RADZ FEW002 BKN003 OVC007 14/13 Q0991 BECMG 8000 BKN007 RMK YLO2 BECMG GRN

TAF TAF EGUW
Valid from the 21 at 12:00 until the 21 at 21:00 UTC


211059Z 2112/2121 16012KT 8000 -RA BKN007
TEMPO 2112/2118 24018G28KT
TEMPO 2112/2115 3000 RADZ BKN005
PROB30
TEMPO 2115/2121 7000 SHRA



MET'MAP, your aeronautical weather chart ! - Copyright ORBIFLY December 2007 - Disclaimer

ORBIFLY MET'MAP TEAM :

Programming & Development : Alexandra Zaïnal
Concept & original design : Baudouin d'Aumeries
Assistance for programming : Marc-Olivier Méhu
Technical & hardware support : Manuel Goepfert

Contact : metmap@orbifly.com




SOURCES & CREDITS :

   NOAA